Time;durP1;ratioP1;P1;durP2;ratioP2;P2;SDS_P1;SDS_P2;PMS_P1;PMS_P2;Temp;Humidity;BMP_temperature;BMP_pressure;BME280_temperature;BME280_humidity;BME280_pressure;Samples;Min_cycle;Max_cycle;Signal;HPM_P1;HPM_P2
2021/11/19 00:00:34;;;;;;;14.93;9.02;;;3.00;99.90;;;;;;5066757;28;20016;-84
2021/11/19 00:03:00;;;;;;;14.32;9.95;;;3.00;99.90;;;;;;5066729;28;20040;-83
2021/11/19 00:05:26;;;;;;;14.30;9.98;;;3.00;99.90;;;;;;5065790;28;20052;-83
2021/11/19 00:07:52;;;;;;;13.18;8.93;;;2.90;99.90;;;;;;5066547;28;20036;-83
2021/11/19 00:10:18;;;;;;;12.90;9.05;;;3.00;99.90;;;;;;5066964;28;20059;-83
2021/11/19 00:12:44;;;;;;;14.48;9.63;;;3.00;99.90;;;;;;5067719;28;20033;-82
2021/11/19 00:15:10;;;;;;;12.98;8.88;;;3.00;99.90;;;;;;5074548;28;20071;-82
2021/11/19 00:17:38;;;;;;;12.23;8.77;;;3.00;99.90;;;;;;5088399;28;20028;-82
2021/11/19 00:20:08;;;;;;;12.90;8.23;;;2.90;99.90;;;;;;5090068;28;20033;-83
2021/11/19 00:22:33;;;;;;;12.93;8.85;;;2.90;99.90;;;;;;5087080;28;20092;-83
2021/11/19 00:24:59;;;;;;;13.30;8.27;;;2.90;99.90;;;;;;5070836;28;20120;-84
2021/11/19 00:27:25;;;;;;;14.55;8.88;;;2.90;99.90;;;;;;5066153;28;20048;-84
2021/11/19 00:29:52;;;;;;;13.52;8.57;;;2.90;99.90;;;;;;5064364;28;20071;-83
2021/11/19 00:32:19;;;;;;;12.85;8.43;;;2.80;99.90;;;;;;5065848;28;20056;-82
2021/11/19 00:34:45;;;;;;;12.75;8.82;;;2.80;99.90;;;;;;5073996;28;20025;-83
2021/11/19 00:37:12;;;;;;;11.70;8.50;;;2.80;99.90;;;;;;5085847;28;20016;-82
2021/11/19 00:39:38;;;;;;;13.18;8.43;;;2.80;99.90;;;;;;5086122;28;20090;-83
2021/11/19 00:42:06;;;;;;;13.05;8.88;;;2.80;99.90;;;;;;5091010;28;20024;-83
2021/11/19 00:44:32;;;;;;;14.07;8.98;;;2.80;99.90;;;;;;5098036;28;20088;-84
2021/11/19 00:46:58;;;;;;;12.43;8.15;;;2.70;99.90;;;;;;5094790;28;20027;-83
2021/11/19 00:49:30;;;;;;;13.13;9.05;;;2.80;99.90;;;;;;5085100;28;20443;-82
2021/11/19 00:51:58;;;;;;;12.50;8.30;;;2.70;99.90;;;;;;5086356;28;20054;-84
2021/11/19 00:54:25;;;;;;;12.82;8.80;;;2.70;99.90;;;;;;5088294;28;20030;-83
2021/11/19 00:56:57;;;;;;;14.10;9.63;;;2.70;99.90;;;;;;5088342;28;20107;-83
2021/11/19 00:59:27;;;;;;;15.55;9.95;;;2.70;99.90;;;;;;5084463;28;20100;-83
2021/11/19 01:02:00;;;;;;;12.52;8.90;;;2.70;99.90;;;;;;5085677;28;20028;-84
2021/11/19 01:04:27;;;;;;;12.88;8.68;;;2.70;99.90;;;;;;5084177;28;20037;-83
2021/11/19 01:06:53;;;;;;;14.13;9.65;;;2.70;99.90;;;;;;5066464;28;20025;-83
2021/11/19 01:09:24;;;;;;;12.48;8.20;;;2.70;99.90;;;;;;5064897;28;20043;-84
2021/11/19 01:11:51;;;;;;;13.00;8.23;;;2.70;99.90;;;;;;5064732;28;20044;-83
2021/11/19 01:14:31;;;;;;;12.95;8.77;;;2.80;99.90;;;;;;5063346;28;20032;-83
2021/11/19 01:17:02;;;;;;;13.45;9.05;;;2.80;99.90;;;;;;5079951;28;20036;-84
2021/11/19 01:19:34;;;;;;;12.07;7.82;;;2.80;99.90;;;;;;5093818;28;20468;-83
2021/11/19 01:22:12;;;;;;;13.65;8.98;;;2.80;99.90;;;;;;5106839;28;20028;-83
2021/11/19 01:24:39;;;;;;;13.85;9.00;;;2.80;99.90;;;;;;5107300;28;20074;-84
2021/11/19 01:27:06;;;;;;;14.05;9.38;;;2.80;99.90;;;;;;5078185;28;20052;-83
2021/11/19 01:29:32;;;;;;;11.90;8.52;;;2.80;99.90;;;;;;5068860;28;20059;-83
2021/11/19 01:32:02;;;;;;;13.50;9.52;;;2.80;99.90;;;;;;5066202;28;20040;-83
2021/11/19 01:34:29;;;;;;;13.38;9.07;;;2.80;99.90;;;;;;5063708;28;20040;-83
2021/11/19 01:36:55;;;;;;;11.60;8.35;;;2.70;99.90;;;;;;5063556;28;20413;-83
2021/11/19 01:39:25;;;;;;;15.00;9.73;;;2.70;99.90;;;;;;5064712;28;20486;-83
2021/11/19 01:42:04;;;;;;;12.90;8.57;;;2.70;99.90;;;;;;5064637;28;20457;-83
2021/11/19 01:44:36;;;;;;;14.00;9.68;;;2.70;99.90;;;;;;5064218;28;20037;-83
2021/11/19 01:47:06;;;;;;;13.80;9.13;;;2.70;99.90;;;;;;5095449;28;20028;-83
2021/11/19 01:49:33;;;;;;;12.48;8.68;;;2.70;99.90;;;;;;5090255;28;20266;-83
2021/11/19 01:52:10;;;;;;;13.85;9.82;;;2.70;99.90;;;;;;5083286;28;20035;-83
2021/11/19 01:54:49;;;;;;;12.80;8.77;;;2.80;99.90;;;;;;5084491;28;20115;-83
2021/11/19 01:57:24;;;;;;;12.98;8.30;;;2.70;99.90;;;;;;5078072;28;20028;-84
2021/11/19 01:59:55;;;;;;;14.32;9.20;;;2.70;99.90;;;;;;5063648;28;20033;-83
2021/11/19 02:02:32;;;;;;;12.85;8.35;;;2.80;99.90;;;;;;5064027;28;20035;-82
2021/11/19 02:05:12;;;;;;;12.82;8.55;;;2.70;99.90;;;;;;5063235;28;20059;-84
2021/11/19 02:07:54;;;;;;;13.15;8.07;;;2.70;99.90;;;;;;5065414;28;20033;-83
2021/11/19 02:10:20;;;;;;;10.52;7.50;;;2.70;99.90;;;;;;5063256;28;20029;-83
2021/11/19 02:13:23;;;;;;;14.05;9.25;;;2.70;99.90;;;;;;5062762;28;20029;-83
2021/11/19 02:15:57;;;;;;;12.50;9.23;;;2.70;99.90;;;;;;5063967;28;20028;-84
2021/11/19 02:18:31;;;;;;;12.10;8.00;;;2.70;99.90;;;;;;5090293;28;20021;-83
2021/11/19 02:21:11;;;;;;;11.10;7.93;;;2.70;99.90;;;;;;5084984;28;20042;-83
2021/11/19 02:23:44;;;;;;;12.30;7.75;;;2.70;99.90;;;;;;5082927;28;20025;-82
2021/11/19 02:26:18;;;;;;;12.45;7.82;;;2.70;99.90;;;;;;5083520;28;20043;-82
2021/11/19 02:28:46;;;;;;;9.60;7.85;;;2.70;99.90;;;;;;5082964;28;20029;-83
2021/11/19 02:31:43;;;;;;;10.23;7.28;;;2.80;99.90;;;;;;5083641;28;20496;-82
2021/11/19 02:34:10;;;;;;;11.05;6.70;;;2.80;99.90;;;;;;5083156;28;20098;-84
2021/11/19 02:36:46;;;;;;;9.00;6.30;;;2.80;99.90;;;;;;5083140;28;20470;-83
2021/11/19 02:39:34;;;;;;;9.55;6.80;;;2.80;99.90;;;;;;5070823;28;20029;-84
2021/11/19 02:42:08;;;;;;;11.23;6.97;;;2.90;99.90;;;;;;5063225;28;20045;-83
2021/11/19 02:44:35;;;;;;;14.55;8.63;;;2.90;99.90;;;;;;5063212;28;20045;-83
2021/11/19 02:47:10;;;;;;;14.98;9.00;;;2.90;99.90;;;;;;5091771;28;20463;-82
2021/11/19 02:49:38;;;;;;;10.75;7.70;;;2.90;99.90;;;;;;5075278;28;20039;-82
2021/11/19 02:52:05;;;;;;;11.48;7.82;;;3.00;99.90;;;;;;5063447;28;20469;-83
2021/11/19 02:54:33;;;;;;;11.98;7.07;;;2.90;99.90;;;;;;5063424;28;20059;-82
2021/11/19 02:57:01;;;;;;;11.80;7.63;;;3.00;99.90;;;;;;5061801;28;20036;-83
2021/11/19 02:59:28;;;;;;;10.30;7.78;;;3.00;99.90;;;;;;5063181;28;20029;-82
2021/11/19 03:02:01;;;;;;;10.07;7.32;;;3.00;99.90;;;;;;5062627;28;20144;-82
2021/11/19 03:04:37;;;;;;;11.95;7.65;;;3.00;99.90;;;;;;5063132;28;20029;-84
2021/11/19 03:07:04;;;;;;;11.45;7.22;;;3.00;99.90;;;;;;5063193;28;20029;-83
2021/11/19 03:09:33;;;;;;;10.23;6.75;;;3.00;99.90;;;;;;5068717;28;20036;-82
2021/11/19 03:12:00;;;;;;;11.60;6.60;;;3.00;99.90;;;;;;5084457;28;20195;-83
2021/11/19 03:14:26;;;;;;;9.65;6.65;;;3.00;99.90;;;;;;5081703;28;20117;-83
2021/11/19 03:16:54;;;;;;;10.75;7.40;;;3.00;99.90;;;;;;5096320;28;20024;-85
2021/11/19 03:19:20;;;;;;;10.68;7.32;;;3.00;99.90;;;;;;5083455;28;20044;-82
2021/11/19 03:21:47;;;;;;;11.23;6.88;;;3.00;99.90;;;;;;5064087;28;20056;-82
2021/11/19 03:24:14;;;;;;;9.23;6.65;;;3.00;99.90;;;;;;5075798;28;20029;-82
2021/11/19 03:26:41;;;;;;;11.00;6.65;;;3.00;99.90;;;;;;5077191;28;20104;-84
2021/11/19 03:29:09;;;;;;;12.25;7.32;;;3.00;99.90;;;;;;5074279;28;20025;-84
2021/11/19 03:31:36;;;;;;;11.02;7.43;;;2.90;99.90;;;;;;5069208;28;20033;-83
2021/11/19 03:34:04;;;;;;;10.40;6.88;;;2.90;99.90;;;;;;5066884;28;20439;-82
2021/11/19 03:36:30;;;;;;;10.75;7.35;;;2.90;99.90;;;;;;5066040;28;20019;-83
2021/11/19 03:38:58;;;;;;;11.05;7.53;;;2.80;99.90;;;;;;5066771;28;20100;-84
2021/11/19 03:41:30;;;;;;;12.90;8.05;;;2.90;99.90;;;;;;5075921;28;20173;-83
2021/11/19 03:44:01;;;;;;;13.90;9.13;;;2.90;99.90;;;;;;5086442;28;20028;-83
2021/11/19 03:46:33;;;;;;;12.75;8.18;;;2.90;99.90;;;;;;5097938;28;20423;-82
2021/11/19 03:48:59;;;;;;;13.95;8.60;;;2.80;99.90;;;;;;5087017;28;20090;-83
2021/11/19 03:51:49;;;;;;;13.45;8.40;;;2.80;99.90;;;;;;5085845;28;20037;-82
2021/11/19 03:54:17;;;;;;;13.02;8.25;;;2.80;99.90;;;;;;5086882;28;20076;-83
2021/11/19 03:56:44;;;;;;;14.32;8.68;;;2.80;99.90;;;;;;5086455;28;20047;-82
2021/11/19 03:59:11;;;;;;;12.77;7.93;;;2.80;99.90;;;;;;5088435;28;20037;-83
2021/11/19 04:01:40;;;;;;;12.48;8.32;;;2.80;99.90;;;;;;5086708;28;20028;-83
2021/11/19 04:04:08;;;;;;;13.68;8.95;;;2.80;99.90;;;;;;5087312;28;20098;-84
2021/11/19 04:06:35;;;;;;;13.55;9.25;;;2.80;99.90;;;;;;5090421;28;20020;-82
2021/11/19 04:09:01;;;;;;;15.25;8.73;;;2.80;99.90;;;;;;5091808;28;20044;-82
2021/11/19 04:11:27;;;;;;;12.50;8.25;;;2.80;99.90;;;;;;5090450;28;20100;-81
2021/11/19 04:13:54;;;;;;;14.05;9.48;;;2.80;99.90;;;;;;5092341;28;20051;-82
2021/11/19 04:16:27;;;;;;;14.05;9.23;;;2.70;99.90;;;;;;5100881;28;20024;-81
2021/11/19 04:18:53;;;;;;;13.75;9.27;;;2.70;99.90;;;;;;5098614;28;20028;-82
2021/11/19 04:21:20;;;;;;;11.73;8.50;;;2.70;99.90;;;;;;5107010;28;20061;-83
2021/11/19 04:23:49;;;;;;;14.88;9.43;;;2.70;99.90;;;;;;5067283;28;20037;-82
2021/11/19 04:26:15;;;;;;;12.60;8.38;;;2.60;99.90;;;;;;5069919;28;20021;-82
2021/11/19 04:28:43;;;;;;;11.57;7.47;;;2.60;99.90;;;;;;5069495;28;20445;-82
2021/11/19 04:31:09;;;;;;;11.68;8.13;;;2.50;99.90;;;;;;5065566;28;20025;-83
2021/11/19 04:33:37;;;;;;;13.70;8.65;;;2.50;99.90;;;;;;5063655;28;20381;-84
2021/11/19 04:36:04;;;;;;;10.20;7.38;;;2.50;99.90;;;;;;5065025;28;20070;-84
2021/11/19 04:38:30;;;;;;;10.27;7.43;;;2.50;99.90;;;;;;5064345;28;20028;-83
2021/11/19 04:40:56;;;;;;;11.57;7.70;;;2.40;99.90;;;;;;5074316;28;20008;-82
2021/11/19 04:43:25;;;;;;;11.25;7.80;;;2.50;99.90;;;;;;5089680;28;20489;-82
2021/11/19 04:45:52;;;;;;;10.48;7.20;;;2.50;99.90;;;;;;5085355;28;20101;-82
2021/11/19 04:48:19;;;;;;;9.52;7.20;;;2.50;99.90;;;;;;5093083;28;20020;-83
2021/11/19 04:50:47;;;;;;;9.00;6.47;;;2.50;99.90;;;;;;5084810;28;20033;-82
2021/11/19 04:53:16;;;;;;;11.52;7.10;;;2.50;99.90;;;;;;5084177;28;20024;-83
2021/11/19 04:55:42;;;;;;;8.38;6.38;;;2.50;99.90;;;;;;5083851;28;20515;-80
2021/11/19 04:58:09;;;;;;;11.80;7.40;;;2.50;99.90;;;;;;5084413;28;20064;-82
2021/11/19 05:00:41;;;;;;;13.23;7.88;;;2.50;99.90;;;;;;5075835;28;20361;-81
2021/11/19 05:03:08;;;;;;;15.05;7.20;;;2.50;99.90;;;;;;5061598;28;20029;-81
2021/11/19 05:05:36;;;;;;;14.68;8.40;;;2.50;99.90;;;;;;5063169;28;20029;-81
2021/11/19 05:08:04;;;;;;;10.90;7.55;;;2.50;99.90;;;;;;5064156;28;20121;-80
2021/11/19 05:10:32;;;;;;;12.60;7.55;;;2.50;99.90;;;;;;5068704;28;20060;-81
2021/11/19 05:13:00;;;;;;;10.48;6.80;;;2.50;99.90;;;;;;5084042;28;20025;-84
2021/11/19 05:15:28;;;;;;;10.35;7.13;;;2.50;99.90;;;;;;5105058;28;20020;-83
2021/11/19 05:17:54;;;;;;;11.10;6.63;;;2.50;99.90;;;;;;5107925;28;20004;-84
2021/11/19 05:20:23;;;;;;;10.70;6.70;;;2.50;99.90;;;;;;5114912;28;20080;-82
2021/11/19 05:22:50;;;;;;;10.80;7.25;;;2.50;99.90;;;;;;5075679;28;20044;-82
2021/11/19 05:25:18;;;;;;;11.02;7.07;;;2.50;99.90;;;;;;5076018;28;20035;-82
2021/11/19 05:27:46;;;;;;;10.15;6.10;;;2.50;99.90;;;;;;5076643;28;20084;-82
2021/11/19 05:30:13;;;;;;;10.73;6.75;;;2.50;99.90;;;;;;5077339;28;20128;-82
2021/11/19 05:32:40;;;;;;;11.48;7.40;;;2.50;99.90;;;;;;5085256;28;20021;-82
2021/11/19 05:35:08;;;;;;;9.82;6.78;;;2.50;99.90;;;;;;5085922;28;20069;-83
2021/11/19 05:37:34;;;;;;;12.20;8.13;;;2.50;99.90;;;;;;5086137;28;20035;-83
2021/11/19 05:40:00;;;;;;;13.02;7.65;;;2.50;99.90;;;;;;5083985;28;20021;-82
2021/11/19 05:42:27;;;;;;;13.95;8.38;;;2.50;99.90;;;;;;5084278;28;20078;-83
2021/11/19 05:44:54;;;;;;;11.70;7.38;;;2.50;99.90;;;;;;5084997;28;20059;-83
2021/11/19 05:47:20;;;;;;;13.95;8.30;;;2.60;99.90;;;;;;5099205;28;20023;-83
2021/11/19 05:49:45;;;;;;;12.10;8.02;;;2.60;99.90;;;;;;5094787;22;20037;-83
2021/11/19 05:52:12;;;;;;;14.13;8.52;;;2.50;99.90;;;;;;5053800;28;20048;-82
2021/11/19 05:54:40;;;;;;;11.55;7.70;;;2.50;99.90;;;;;;5062181;28;20025;-83
2021/11/19 05:57:08;;;;;;;12.23;7.40;;;2.50;99.90;;;;;;5060433;28;20025;-82
2021/11/19 05:59:35;;;;;;;13.35;7.60;;;2.50;99.90;;;;;;5060049;28;20032;-85
2021/11/19 06:02:05;;;;;;;11.43;7.35;;;2.40;99.90;;;;;;5056139;28;20025;-83
2021/11/19 06:04:31;;;;;;;10.40;7.25;;;2.40;99.90;;;;;;5022244;28;20093;-84
2021/11/19 06:06:57;;;;;;;9.63;6.60;;;2.40;99.90;;;;;;5022301;28;20053;-83
2021/11/19 06:09:30;;;;;;;10.05;7.18;;;2.40;99.90;;;;;;5021491;28;20022;-84
2021/11/19 06:12:05;;;;;;;12.20;8.05;;;2.40;99.90;;;;;;5021872;28;20033;-84
2021/11/19 06:14:36;;;;;;;12.82;7.72;;;2.40;99.90;;;;;;5037556;28;20026;-84
2021/11/19 06:17:05;;;;;;;12.30;7.70;;;2.40;99.90;;;;;;5018965;28;20033;-83
2021/11/19 06:19:37;;;;;;;15.45;8.80;;;2.50;99.90;;;;;;5015158;28;20033;-84
2021/11/19 06:22:11;;;;;;;16.52;10.63;;;2.50;99.90;;;;;;5038942;28;20159;-83
2021/11/19 06:24:47;;;;;;;15.90;9.50;;;2.50;99.90;;;;;;5039981;28;20033;-84
2021/11/19 06:27:22;;;;;;;16.30;9.82;;;2.60;99.90;;;;;;5038007;28;20077;-84
2021/11/19 06:29:56;;;;;;;13.77;9.15;;;2.60;99.90;;;;;;5038989;28;20376;-81
2021/11/19 06:32:23;;;;;;;13.98;9.27;;;2.60;99.90;;;;;;5039263;28;20026;-83
2021/11/19 06:34:49;;;;;;;13.68;8.68;;;2.60;99.90;;;;;;5040183;28;20359;-83
2021/11/19 06:37:15;;;;;;;13.43;8.23;;;2.70;99.90;;;;;;5040701;28;20076;-84
2021/11/19 06:39:42;;;;;;;14.90;8.80;;;2.70;99.90;;;;;;5035421;28;20485;-86
2021/11/19 06:42:10;;;;;;;11.57;7.45;;;2.70;99.90;;;;;;5012576;28;20021;-83
2021/11/19 06:44:38;;;;;;;12.25;8.00;;;2.80;99.90;;;;;;5038855;28;20105;-83
2021/11/19 06:47:05;;;;;;;11.93;7.32;;;2.80;99.90;;;;;;5019230;28;20028;-83
2021/11/19 06:49:31;;;;;;;12.75;7.38;;;2.80;99.90;;;;;;5016290;28;20116;-85
2021/11/19 06:51:57;;;;;;;10.48;7.07;;;2.90;99.90;;;;;;5035758;28;20504;-82
2021/11/19 06:54:23;;;;;;;11.43;6.93;;;2.90;99.90;;;;;;5030810;28;20033;-82
2021/11/19 06:56:50;;;;;;;11.68;7.57;;;3.00;99.90;;;;;;5011810;28;20022;-83
2021/11/19 06:59:16;;;;;;;11.63;7.28;;;3.00;99.90;;;;;;5038132;28;20087;-83
2021/11/19 07:01:41;;;;;;;10.38;6.63;;;3.20;99.90;;;;;;5042404;28;20033;-83
2021/11/19 07:04:07;;;;;;;10.13;6.30;;;3.30;99.90;;;;;;5026262;28;20492;-82
2021/11/19 07:06:34;;;;;;;9.80;5.97;;;3.30;99.90;;;;;;5043745;28;20417;-82
2021/11/19 07:09:00;;;;;;;10.00;6.80;;;3.40;99.90;;;;;;5036795;28;20054;-84
2021/11/19 07:11:27;;;;;;;9.70;6.57;;;3.50;99.90;;;;;;5022585;28;20018;-83
2021/11/19 07:13:53;;;;;;;11.63;7.78;;;3.60;99.90;;;;;;5035045;28;20021;-83
2021/11/19 07:16:25;;;;;;;10.82;7.25;;;3.60;99.90;;;;;;5039055;28;20097;-84
2021/11/19 07:18:53;;;;;;;10.57;7.18;;;3.70;99.90;;;;;;5012636;28;20034;-83
2021/11/19 07:21:19;;;;;;;15.82;9.55;;;3.80;99.90;;;;;;5022347;28;20046;-83
2021/11/19 07:23:45;;;;;;;11.70;8.43;;;3.90;99.90;;;;;;5025536;28;20045;-83
2021/11/19 07:26:12;;;;;;;13.25;7.90;;;3.90;99.90;;;;;;5032004;28;20055;-83
2021/11/19 07:28:38;;;;;;;13.23;8.85;;;4.00;99.90;;;;;;5031496;28;20026;-82
2021/11/19 07:31:06;;;;;;;13.27;8.95;;;4.10;99.90;;;;;;5007557;28;20390;-84
2021/11/19 07:33:32;;;;;;;12.93;9.02;;;4.20;99.90;;;;;;5028651;28;20034;-82
2021/11/19 07:35:59;;;;;;;14.15;8.38;;;4.30;99.90;;;;;;5036661;28;20064;-82
2021/11/19 07:38:27;;;;;;;12.05;8.07;;;4.30;99.90;;;;;;5044388;28;20086;-85
2021/11/19 07:40:53;;;;;;;12.93;9.25;;;4.40;99.90;;;;;;5024460;28;20033;-80
2021/11/19 07:43:20;;;;;;;17.77;8.75;;;4.50;99.90;;;;;;5038730;28;20073;-82
2021/11/19 07:45:48;;;;;;;10.52;7.72;;;4.60;99.90;;;;;;5037299;28;20109;-82
2021/11/19 07:48:17;;;;;;;13.20;8.80;;;4.80;99.90;;;;;;5017473;28;20017;-83
2021/11/19 07:50:46;;;;;;;11.80;8.10;;;4.90;99.90;;;;;;5045183;28;20025;-83
2021/11/19 07:53:13;;;;;;;12.00;8.05;;;5.00;99.90;;;;;;5026274;28;20017;-82
2021/11/19 07:55:41;;;;;;;9.52;6.88;;;5.00;99.90;;;;;;5025730;28;20030;-82
2021/11/19 07:58:07;;;;;;;12.38;8.48;;;5.10;99.90;;;;;;5043349;28;20115;-84
2021/11/19 08:00:39;;;;;;;9.43;6.57;;;5.10;99.90;;;;;;5025072;28;20025;-84
2021/11/19 08:03:04;;;;;;;9.68;7.60;;;5.20;99.90;;;;;;5028794;28;20037;-83
2021/11/19 08:05:31;;;;;;;11.48;7.28;;;5.20;99.90;;;;;;5043391;28;20247;-82
2021/11/19 08:07:57;;;;;;;9.43;6.82;;;5.20;99.90;;;;;;5040830;28;20025;-83
2021/11/19 08:10:23;;;;;;;11.60;7.40;;;5.30;99.90;;;;;;5012950;28;20531;-82
2021/11/19 08:12:49;;;;;;;9.98;6.63;;;5.30;99.90;;;;;;5030359;28;20037;-83
2021/11/19 08:15:21;;;;;;;9.57;5.97;;;5.30;99.90;;;;;;5037294;28;20032;-81
2021/11/19 08:17:49;;;;;;;8.30;6.03;;;5.30;99.90;;;;;;5035163;28;20148;-83
2021/11/19 08:20:22;;;;;;;7.05;5.13;;;5.30;99.90;;;;;;5020675;28;20149;-83
2021/11/19 08:22:48;;;;;;;7.45;5.45;;;5.40;99.90;;;;;;5022483;28;20026;-82
2021/11/19 08:25:15;;;;;;;8.80;5.82;;;5.40;99.90;;;;;;5021566;28;20395;-83
2021/11/19 08:27:46;;;;;;;11.02;6.22;;;5.40;99.90;;;;;;5023566;28;20057;-83
2021/11/19 08:30:17;;;;;;;11.68;6.80;;;5.40;99.90;;;;;;5040907;28;20127;-83
2021/11/19 08:32:43;;;;;;;7.32;4.97;;;5.50;99.90;;;;;;5045059;28;20025;-82
2021/11/19 08:35:09;;;;;;;6.78;4.88;;;5.50;99.90;;;;;;5043730;28;20068;-84
2021/11/19 08:37:36;;;;;;;8.85;5.32;;;5.70;99.90;;;;;;5042417;28;20033;-83
2021/11/19 08:40:04;;;;;;;7.85;5.53;;;5.80;99.90;;;;;;5045147;28;20347;-82
2021/11/19 08:42:30;;;;;;;8.88;5.88;;;5.90;99.90;;;;;;5026566;28;20029;-81
2021/11/19 08:44:56;;;;;;;9.43;5.32;;;6.00;99.90;;;;;;5037868;28;20116;-82
2021/11/19 08:47:24;;;;;;;9.57;5.53;;;6.10;99.90;;;;;;5011844;28;20034;-83
2021/11/19 08:49:50;;;;;;;6.60;4.80;;;6.20;99.90;;;;;;5039523;28;20017;-83
2021/11/19 08:52:18;;;;;;;6.72;4.65;;;6.40;99.90;;;;;;5032380;28;20026;-83
2021/11/19 08:54:44;;;;;;;7.75;4.85;;;6.50;99.90;;;;;;5027105;28;20071;-83
2021/11/19 08:57:14;;;;;;;7.13;5.10;;;6.60;99.80;;;;;;5044954;28;20140;-83
2021/11/19 08:59:42;;;;;;;9.43;4.95;;;6.70;99.50;;;;;;5043443;28;20032;-82
2021/11/19 09:02:12;;;;;;;5.97;5.00;;;6.80;99.30;;;;;;5023106;28;20022;-82
2021/11/19 09:04:37;;;;;;;8.07;4.75;;;6.90;99.10;;;;;;5046156;28;20032;-83
2021/11/19 09:07:04;;;;;;;6.35;4.93;;;7.20;98.70;;;;;;5026387;28;20064;-84
2021/11/19 09:09:31;;;;;;;8.00;5.22;;;7.30;98.00;;;;;;5041343;28;20021;-81
2021/11/19 09:11:57;;;;;;;8.93;5.50;;;7.40;97.40;;;;;;5040711;28;20025;-81
2021/11/19 09:14:24;;;;;;;9.35;5.32;;;7.50;96.70;;;;;;5042653;28;20041;-82
2021/11/19 09:17:03;;;;;;;4.82;4.10;;;7.70;96.40;;;;;;5015907;28;20056;-83
2021/11/19 09:19:57;;;;;;;7.47;4.47;;;7.80;96.20;;;;;;5032549;28;20100;-82
2021/11/19 09:22:52;;;;;;;7.70;5.55;;;8.00;95.60;;;;;;5043063;28;20029;-80
2021/11/19 09:25:20;;;;;;;12.23;5.15;;;8.00;95.10;;;;;;4991936;28;20029;-81
2021/11/19 09:27:46;;;;;;;6.13;4.40;;;8.00;95.20;;;;;;5025933;28;20025;-81
2021/11/19 09:30:22;;;;;;;9.85;5.53;;;7.90;95.20;;;;;;5025122;28;20032;-82
2021/11/19 09:32:50;;;;;;;7.97;4.88;;;7.90;95.40;;;;;;5041665;28;20060;-82
2021/11/19 09:35:18;;;;;;;7.13;4.20;;;7.90;95.60;;;;;;5041517;28;20025;-81
2021/11/19 09:37:46;;;;;;;5.40;4.13;;;8.10;95.60;;;;;;5008574;28;20025;-82
2021/11/19 09:40:12;;;;;;;6.32;4.30;;;8.20;95.30;;;;;;5024560;28;20025;-81
2021/11/19 09:42:53;;;;;;;7.07;4.78;;;8.30;95.00;;;;;;5024831;28;20502;-81
2021/11/19 09:45:52;;;;;;;6.80;5.10;;;8.40;94.90;;;;;;5042807;28;20034;-81
2021/11/19 09:48:33;;;;;;;7.88;5.38;;;8.50;93.90;;;;;;5030638;28;20045;-83
2021/11/19 09:51:39;;;;;;;7.97;4.80;;;8.70;93.30;;;;;;5034181;28;20037;-82
2021/11/19 09:54:28;;;;;;;7.35;5.00;;;9.10;93.10;;;;;;4961102;29;20085;-82
2021/11/19 09:57:12;;;;;;;7.65;5.80;;;9.20;92.00;;;;;;4963719;29;20111;-79
2021/11/19 09:59:43;;;;;;;6.03;4.75;;;9.30;91.30;;;;;;5025636;28;20033;-81
2021/11/19 10:02:46;;;;;;;6.45;4.97;;;9.40;91.60;;;;;;5033151;28;20105;-82
2021/11/19 10:05:35;;;;;;;8.70;6.60;;;9.60;91.50;;;;;;5038648;28;20032;-82
2021/11/19 10:08:10;;;;;;;11.40;8.15;;;9.80;90.80;;;;;;5056560;28;20039;-82
2021/11/19 10:11:13;;;;;;;11.20;8.50;;;9.90;89.90;;;;;;5033032;28;20033;-82
2021/11/19 10:14:26;;;;;;;12.70;9.45;;;10.00;88.60;;;;;;5040887;28;20108;-82
2021/11/19 10:17:44;;;;;;;11.68;9.00;;;10.00;88.40;;;;;;5024582;28;20131;-81
2021/11/19 10:20:26;;;;;;;11.20;8.77;;;9.90;88.60;;;;;;5037887;28;20026;-79
2021/11/19 10:22:56;;;;;;;13.05;8.55;;;9.70;88.70;;;;;;5029122;28;20500;-82
2021/11/19 10:25:31;;;;;;;12.60;8.73;;;9.60;88.60;;;;;;5055482;28;20040;-81
2021/11/19 10:28:02;;;;;;;11.32;7.80;;;9.50;90.00;;;;;;5035795;28;20053;-83
2021/11/19 10:30:35;;;;;;;11.60;7.90;;;9.30;90.30;;;;;;5028329;28;20026;-81
2021/11/19 10:33:27;;;;;;;9.82;8.05;;;9.10;90.70;;;;;;5024040;28;20041;-81
2021/11/19 10:36:11;;;;;;;12.15;8.13;;;9.00;91.10;;;;;;5034043;28;20033;-83
2021/11/19 10:39:04;;;;;;;10.02;7.95;;;8.90;91.20;;;;;;5044074;28;20048;-82
2021/11/19 10:42:24;;;;;;;12.60;8.82;;;8.90;91.60;;;;;;5041582;28;20037;-82
2021/11/19 10:45:13;;;;;;;11.70;7.95;;;8.90;91.50;;;;;;4983728;28;20031;-82
2021/11/19 10:48:00;;;;;;;10.05;7.15;;;8.80;91.90;;;;;;5018450;28;20034;-82
2021/11/19 10:50:36;;;;;;;13.48;9.52;;;8.80;92.10;;;;;;5024802;28;20083;-82
2021/11/19 10:53:12;;;;;;;17.13;10.40;;;8.70;92.20;;;;;;5027607;28;20036;-81
2021/11/19 10:56:02;;;;;;;12.23;8.93;;;8.60;92.20;;;;;;5031638;28;20454;-82
2021/11/19 10:58:55;;;;;;;11.95;8.88;;;8.60;92.30;;;;;;5024199;28;20116;-81
2021/11/19 11:01:44;;;;;;;11.43;8.30;;;8.60;91.90;;;;;;5023518;28;20099;-82
2021/11/19 11:07:13;;;;;;;13.98;9.32;;;8.70;92.30;;;;;;5043871;28;20053;-83
2021/11/19 11:09:48;;;;;;;15.88;9.32;;;8.70;92.20;;;;;;5024388;28;20030;-82
2021/11/19 11:12:14;;;;;;;12.85;9.32;;;8.70;91.90;;;;;;5039250;28;20025;-81
2021/11/19 11:14:42;;;;;;;14.27;9.02;;;8.70;92.10;;;;;;5037909;28;20041;-81
2021/11/19 11:17:30;;;;;;;13.88;9.63;;;8.70;92.10;;;;;;5041584;28;20115;-81
2021/11/19 11:20:01;;;;;;;12.18;9.40;;;8.70;92.30;;;;;;5020708;28;20033;-82
2021/11/19 11:22:33;;;;;;;13.63;8.38;;;8.70;92.20;;;;;;5005859;28;20026;-81
2021/11/19 11:25:03;;;;;;;12.00;7.32;;;8.70;92.40;;;;;;5035976;28;20013;-82
2021/11/19 11:28:08;;;;;;;11.18;7.50;;;8.90;92.50;;;;;;5025538;28;20029;-81
2021/11/19 11:30:54;;;;;;;12.70;8.77;;;9.00;92.20;;;;;;5045375;28;20025;-81
2021/11/19 11:33:28;;;;;;;10.23;7.53;;;9.10;91.60;;;;;;5048217;28;20105;-81
2021/11/19 11:36:10;;;;;;;11.52;8.85;;;9.20;91.40;;;;;;5027703;28;20033;-82
2021/11/19 11:38:48;;;;;;;11.20;8.02;;;9.30;91.20;;;;;;5044587;28;20017;-81
2021/11/19 11:41:17;;;;;;;11.73;7.82;;;9.40;91.10;;;;;;5045486;28;20125;-80
2021/11/19 11:43:54;;;;;;;12.07;8.65;;;9.40;90.90;;;;;;5048932;28;20028;-80
2021/11/19 11:46:26;;;;;;;9.32;7.05;;;9.40;90.80;;;;;;5024580;28;20034;-82
2021/11/19 11:49:17;;;;;;;10.88;7.85;;;9.60;90.80;;;;;;5040109;28;20032;-82
2021/11/19 11:51:45;;;;;;;12.07;8.57;;;9.80;90.00;;;;;;5092641;22;20460;-80
2021/11/19 11:54:53;;;;;;;9.93;7.57;;;10.10;89.80;;;;;;5105878;28;20098;-80
2021/11/19 11:57:29;;;;;;;8.25;5.70;;;10.40;88.40;;;;;;5092374;28;20040;-78
2021/11/19 11:59:55;;;;;;;8.65;5.28;;;10.70;87.10;;;;;;5089753;28;20115;-80
2021/11/19 12:02:54;;;;;;;7.53;6.03;;;10.90;85.90;;;;;;5107158;28;20061;-80
2021/11/19 12:05:35;;;;;;;7.45;5.22;;;10.90;83.80;;;;;;5079869;28;20089;-79
2021/11/19 12:08:58;;;;;;;6.35;5.00;;;10.90;84.20;;;;;;5083006;28;20104;-80
2021/11/19 12:11:52;;;;;;;6.95;5.35;;;10.80;84.30;;;;;;5006234;28;20022;-78
2021/11/19 12:14:21;;;;;;;6.15;4.68;;;10.50;84.50;;;;;;5008594;28;20037;-80
2021/11/19 12:16:50;;;;;;;6.53;4.82;;;10.20;85.10;;;;;;5067576;28;20035;-81
2021/11/19 12:19:53;;;;;;;6.15;3.85;;;10.00;86.00;;;;;;5080887;28;20074;-80
2021/11/19 12:22:23;;;;;;;5.00;3.83;;;9.90;86.70;;;;;;5089050;28;20334;-80
2021/11/19 12:25:38;;;;;;;4.15;3.70;;;9.80;86.90;;;;;;5079041;28;20112;-80
2021/11/19 12:28:27;;;;;;;6.22;4.30;;;9.80;87.00;;;;;;5075965;28;20365;-80
2021/11/19 12:30:57;;;;;;;5.45;4.00;;;9.80;85.80;;;;;;5101079;28;20016;-79
2021/11/19 12:33:39;;;;;;;5.88;3.22;;;9.80;86.10;;;;;;5087236;28;20024;-80
2021/11/19 12:36:24;;;;;;;5.47;4.55;;;9.90;86.20;;;;;;5104015;28;20111;-81
2021/11/19 12:38:57;;;;;;;4.82;3.42;;;9.90;85.60;;;;;;5083034;28;20024;-80
2021/11/19 12:41:41;;;;;;;6.18;3.40;;;9.90;85.70;;;;;;5103064;28;20035;-81
2021/11/19 12:44:27;;;;;;;7.05;3.85;;;10.00;85.50;;;;;;5102792;28;20024;-81
2021/11/19 12:47:08;;;;;;;5.35;4.18;;;10.00;85.10;;;;;;5085126;28;20020;-79
2021/11/19 12:49:55;;;;;;;4.18;3.60;;;10.10;84.00;;;;;;5085826;28;20020;-80
2021/11/19 12:52:30;;;;;;;5.65;3.75;;;10.20;83.20;;;;;;5072785;28;20481;-81
2021/11/19 12:55:25;;;;;;;5.22;3.55;;;10.40;83.20;;;;;;5064580;28;20397;-80
2021/11/19 12:57:57;;;;;;;5.10;3.83;;;10.50;82.10;;;;;;5064986;28;20054;-80
2021/11/19 13:00:35;;;;;;;9.05;4.55;;;10.60;80.60;;;;;;5083375;28;20024;-79
2021/11/19 13:03:19;;;;;;;5.43;3.70;;;10.80;79.90;;;;;;5064725;28;20120;-80
2021/11/19 13:06:26;;;;;;;4.45;3.00;;;10.80;78.60;;;;;;5063989;28;20021;-80
2021/11/19 13:09:06;;;;;;;4.97;2.90;;;11.00;78.80;;;;;;5064119;28;20066;-80
2021/11/19 13:11:32;;;;;;;5.38;3.22;;;11.00;77.80;;;;;;5081602;28;20021;-80
2021/11/19 13:14:16;;;;;;;3.60;2.75;;;10.90;77.80;;;;;;5083137;28;20050;-79
2021/11/19 13:16:48;;;;;;;3.35;2.50;;;10.80;78.00;;;;;;5083505;28;20103;-80
2021/11/19 13:19:35;;;;;;;;;;;10.70;78.30;;;;;;5065567;28;20058;-81